Airfield :
LOGIN :

Register | Disclaimer

   EN    FR    IT 

 










Legend :    VFR   Marginal VFR   IFR   Intensive IFR   Very Intensive IFR
Visi :
Ceiling :
>= 8 km
>= 3000ft
5 to 8 km
1000 to 3000 ft
1500m to 5 km
500 to 1000 ft
800 to 1500m
200 to 500 ft
< 800m
< 200 ft
Symbols :   Thunderstorms  Fog  Heavy snow  Heavy precipitations  Wind > 20 kt
SIGMETs :     Misc.  Thunderstorms  Icing  Turbulence  Mountain Waves  Volcanic Ashes






- Airport Elevation : 1947 ft
- IATA code : OBF


EDMO - Oberpfaffenhofen

CURRENT METAR :
  • 151950Z AUTO 09004KT 9999 // FEW047/// OVC130/// 06/05 Q1012

EXPIRED METARs :
  • 151920Z AUTO 05004KT 9999 // FEW007/// OVC120/// 06/05 Q1012
  • 151850Z AUTO 03006KT 9999 // BKN120/// 06/05 Q1012
  • 151820Z AUTO 05008KT 9999 // OVC120/// 08/06 Q1011
  • 151750Z AUTO 25006KT 9999 // BKN099/// OVC130/// 10/05 Q1011
  • 151720Z AUTO 25006KT 9999 // BKN097/// OVC130/// 11/05 Q1011

Expired Forecast.



MET'MAP, your aeronautical weather chart ! - Copyright ORBIFLY December 2007 - Disclaimer

ORBIFLY MET'MAP TEAM :

Programming & Development : Alexandra Zaïnal
Concept & original design : Baudouin d'Aumeries
Assistance for programming : Marc-Olivier Méhu
Technical & hardware support : Manuel Goepfert

Contact : metmap@orbifly.com




SOURCES & CREDITS :

   NOAA